createdAt,value
2022-08-17T00:00:34.555Z,21.02
2022-08-17T00:01:52.012Z,21.00
2022-08-17T00:03:08.318Z,20.96
2022-08-17T00:04:11.972Z,20.92
2022-08-17T00:05:15.491Z,20.87
2022-08-17T00:06:25.481Z,20.87
2022-08-17T00:07:27.060Z,20.87
2022-08-17T00:08:34.857Z,20.88
2022-08-17T00:09:36.482Z,20.83
2022-08-17T00:10:38.623Z,20.84
2022-08-17T00:11:43.043Z,20.79
2022-08-17T00:13:11.640Z,20.78
2022-08-17T00:14:17.631Z,20.73
2022-08-17T00:15:20.850Z,20.72
2022-08-17T00:16:55.930Z,20.70
2022-08-17T00:17:51.843Z,20.67
2022-08-17T00:18:56.699Z,20.65
2022-08-17T00:20:11.213Z,20.62
2022-08-17T00:21:14.762Z,20.62
2022-08-17T00:22:33.853Z,20.62
2022-08-17T00:23:37.683Z,20.59
2022-08-17T00:24:39.267Z,20.59
2022-08-17T00:25:45.474Z,20.57
2022-08-17T00:26:47.332Z,20.56
2022-08-17T00:27:48.824Z,20.55
2022-08-17T00:28:50.354Z,20.54
2022-08-17T00:29:53.512Z,20.52
2022-08-17T00:30:55.011Z,20.52
2022-08-17T00:31:56.564Z,20.54
2022-08-17T00:33:22.940Z,20.51
2022-08-17T00:34:19.902Z,20.48
2022-08-17T00:35:23.394Z,20.46
2022-08-17T00:36:25.178Z,20.46
2022-08-17T00:37:26.674Z,20.46
2022-08-17T00:38:29.024Z,20.43
2022-08-17T00:39:30.593Z,20.42
2022-08-17T00:40:40.072Z,20.40
2022-08-17T00:41:46.256Z,20.38
2022-08-17T00:42:48.549Z,20.37
2022-08-17T00:44:00.637Z,20.34
2022-08-17T00:45:03.854Z,20.32
2022-08-17T00:46:10.638Z,20.36
2022-08-17T00:47:12.195Z,20.36
2022-08-17T00:48:29.424Z,20.33
2022-08-17T00:49:32.118Z,20.31
2022-08-17T00:50:35.109Z,20.30
2022-08-17T00:52:01.311Z,20.27
2022-08-17T00:53:04.550Z,20.23
2022-08-17T00:54:23.837Z,20.25
2022-08-17T00:55:26.319Z,20.22
2022-08-17T00:56:33.090Z,20.22
2022-08-17T00:57:45.232Z,20.22
2022-08-17T00:58:48.375Z,20.20
2022-08-17T01:00:02.691Z,20.20
2022-08-17T01:01:08.109Z,20.21
2022-08-17T01:02:12.895Z,20.20
2022-08-17T01:03:19.053Z,20.20
2022-08-17T01:04:22.249Z,20.20
2022-08-17T01:05:27.042Z,20.20
2022-08-17T01:06:31.868Z,20.20
2022-08-17T01:07:34.337Z,20.21
2022-08-17T01:08:40.316Z,20.20
2022-08-17T01:09:43.375Z,20.18
2022-08-17T01:10:59.140Z,20.18
2022-08-17T01:12:08.538Z,20.17
2022-08-17T01:13:11.561Z,20.15
2022-08-17T01:14:13.314Z,20.17
2022-08-17T01:15:16.794Z,20.17
2022-08-17T01:16:31.576Z,20.16
2022-08-17T01:17:33.880Z,20.14
2022-08-17T01:18:35.810Z,20.11
2022-08-17T01:19:40.715Z,20.11
2022-08-17T01:20:48.888Z,20.10
2022-08-17T01:22:03.450Z,20.09
2022-08-17T01:23:05.031Z,20.10
2022-08-17T01:24:07.311Z,20.09
2022-08-17T01:25:09.568Z,20.08
2022-08-17T01:26:11.131Z,20.07
2022-08-17T01:27:14.226Z,20.05
2022-08-17T01:28:52.799Z,20.04
2022-08-17T01:29:40.877Z,20.03
2022-08-17T01:30:58.802Z,20.04
2022-08-17T01:32:04.389Z,20.03
2022-08-17T01:33:05.904Z,20.01
2022-08-17T01:34:10.370Z,20.01
2022-08-17T01:35:12.225Z,20.02
2022-08-17T01:36:14.124Z,20.02
2022-08-17T01:37:16.553Z,20.00
2022-08-17T01:38:18.097Z,20.01
2022-08-17T01:39:33.686Z,19.99
2022-08-17T01:40:38.897Z,20.02
2022-08-17T01:41:41.003Z,20.01
2022-08-17T01:43:00.438Z,20.01
2022-08-17T01:44:05.439Z,20.00
2022-08-17T01:45:11.801Z,20.00
2022-08-17T01:46:21.772Z,20.01
2022-08-17T01:47:23.822Z,20.02
2022-08-17T01:48:34.454Z,20.02
2022-08-17T01:49:35.976Z,20.00
2022-08-17T01:50:41.268Z,19.96
2022-08-17T01:51:42.863Z,19.95
2022-08-17T01:52:46.338Z,19.93
2022-08-17T01:53:52.200Z,19.88
2022-08-17T01:54:54.694Z,19.89
2022-08-17T01:56:01.160Z,19.90
2022-08-17T01:57:03.444Z,19.88
2022-08-17T01:58:05.542Z,19.88
2022-08-17T01:59:07.248Z,19.84
2022-08-17T02:00:09.337Z,19.83
2022-08-17T02:01:13.896Z,19.82
2022-08-17T02:02:30.441Z,19.80
2022-08-17T02:03:34.976Z,19.80
2022-08-17T02:04:36.559Z,19.76
2022-08-17T02:05:38.963Z,19.74
2022-08-17T02:06:52.545Z,19.73
2022-08-17T02:07:59.955Z,19.70
2022-08-17T02:09:03.810Z,19.68
2022-08-17T02:10:06.789Z,19.69
2022-08-17T02:11:22.006Z,19.67
2022-08-17T02:12:38.985Z,19.64
2022-08-17T02:13:41.986Z,19.63
2022-08-17T02:14:43.664Z,19.62
2022-08-17T02:15:45.582Z,19.62
2022-08-17T02:16:47.139Z,19.59
2022-08-17T02:17:48.698Z,19.59
2022-08-17T02:18:56.619Z,19.56
2022-08-17T02:19:58.251Z,19.55
2022-08-17T02:21:00.191Z,19.54
2022-08-17T02:22:01.830Z,19.58
2022-08-17T02:23:04.739Z,19.62
2022-08-17T02:24:15.647Z,19.62
2022-08-17T02:25:20.302Z,19.62
2022-08-17T02:26:26.734Z,19.62
2022-08-17T02:27:29.284Z,19.61
2022-08-17T02:28:31.351Z,19.61
2022-08-17T02:29:32.903Z,19.59
2022-08-17T02:30:58.969Z,19.58
2022-08-17T02:31:56.085Z,19.58
2022-08-17T02:32:57.622Z,19.58
2022-08-17T02:34:04.559Z,19.59
2022-08-17T02:35:07.484Z,19.57
2022-08-17T02:36:10.323Z,19.59
2022-08-17T02:37:11.940Z,19.56
2022-08-17T02:38:13.547Z,19.59
2022-08-17T02:39:15.249Z,19.57
2022-08-17T02:40:17.493Z,19.54
2022-08-17T02:41:38.906Z,19.50
2022-08-17T02:42:42.341Z,19.48
2022-08-17T02:43:43.849Z,19.47
2022-08-17T02:44:45.400Z,19.51
2022-08-17T02:45:47.020Z,19.49
2022-08-17T02:46:48.593Z,19.48
2022-08-17T02:47:50.575Z,19.45
2022-08-17T02:48:52.107Z,19.43
2022-08-17T02:49:55.340Z,19.42
2022-08-17T02:50:57.426Z,19.40
2022-08-17T02:51:59.019Z,19.41
2022-08-17T02:53:02.517Z,19.42
2022-08-17T02:54:39.653Z,19.41
2022-08-17T02:55:32.640Z,19.43
2022-08-17T02:56:34.178Z,19.42
2022-08-17T02:57:35.726Z,19.39
2022-08-17T02:58:37.329Z,19.39
2022-08-17T02:59:41.596Z,19.38
2022-08-17T03:00:46.676Z,19.37
2022-08-17T03:01:48.320Z,19.35
2022-08-17T03:02:51.175Z,19.34
2022-08-17T03:03:53.097Z,19.32
2022-08-17T03:04:54.582Z,19.33
2022-08-17T03:05:56.118Z,19.35
2022-08-17T03:06:57.641Z,19.35
2022-08-17T03:07:59.435Z,19.34
2022-08-17T03:09:01.004Z,19.33
2022-08-17T03:10:02.753Z,19.33
2022-08-17T03:11:04.707Z,19.34
2022-08-17T03:12:08.915Z,19.34
2022-08-17T03:13:12.283Z,19.34
2022-08-17T03:14:13.787Z,19.33
2022-08-17T03:15:18.983Z,19.26
2022-08-17T03:16:20.484Z,19.28
2022-08-17T03:17:21.998Z,19.28
2022-08-17T03:18:24.650Z,19.29
2022-08-17T03:19:27.614Z,19.30
2022-08-17T03:20:31.633Z,19.31
2022-08-17T03:21:33.143Z,19.30
2022-08-17T03:22:40.563Z,19.28
2022-08-17T03:23:42.063Z,19.30
2022-08-17T03:24:44.040Z,19.32
2022-08-17T03:25:46.363Z,19.33
2022-08-17T03:26:47.839Z,19.34
2022-08-17T03:27:50.272Z,19.36
2022-08-17T03:28:53.405Z,19.39
2022-08-17T03:29:54.924Z,19.38
2022-08-17T03:30:56.483Z,19.39
2022-08-17T03:31:58.088Z,19.36
2022-08-17T03:33:02.292Z,19.41
2022-08-17T03:34:03.849Z,19.42
2022-08-17T03:35:06.114Z,19.44
2022-08-17T03:36:08.089Z,19.44
2022-08-17T03:37:09.814Z,19.46
2022-08-17T03:38:12.812Z,19.44
2022-08-17T03:39:17.491Z,19.47
2022-08-17T03:40:55.422Z,19.48
2022-08-17T03:41:40.877Z,19.48
2022-08-17T03:42:42.821Z,19.50
2022-08-17T03:43:44.403Z,19.52
2022-08-17T03:44:50.428Z,19.53
2022-08-17T03:45:52.119Z,19.55
2022-08-17T03:46:54.959Z,19.56
2022-08-17T03:47:56.443Z,19.58
2022-08-17T03:48:57.967Z,19.58
2022-08-17T03:49:59.522Z,19.62
2022-08-17T03:51:01.182Z,19.62
2022-08-17T03:52:02.758Z,19.60
2022-08-17T03:53:08.901Z,19.63
2022-08-17T03:54:11.554Z,19.63
2022-08-17T03:55:13.084Z,19.60
2022-08-17T03:56:14.745Z,19.55
2022-08-17T03:57:16.522Z,19.56
2022-08-17T03:58:18.153Z,19.54
2022-08-17T03:59:22.502Z,19.53
2022-08-17T04:00:24.330Z,19.55
2022-08-17T04:01:25.931Z,19.55
2022-08-17T04:02:31.522Z,19.54
2022-08-17T04:03:33.377Z,19.52
2022-08-17T04:04:35.879Z,19.51
2022-08-17T04:05:37.381Z,19.50
2022-08-17T04:06:40.475Z,19.49
2022-08-17T04:07:42.150Z,19.47
2022-08-17T04:08:43.645Z,19.45
2022-08-17T04:09:45.157Z,19.43
2022-08-17T04:10:46.970Z,19.42
2022-08-17T04:11:48.476Z,19.42
2022-08-17T04:12:54.779Z,19.44
2022-08-17T04:13:56.512Z,19.42
2022-08-17T04:14:58.723Z,19.42
2022-08-17T04:16:00.333Z,19.42
2022-08-17T04:17:02.237Z,19.47
2022-08-17T04:18:03.975Z,19.43
2022-08-17T04:19:06.529Z,19.48
2022-08-17T04:20:08.605Z,19.48
2022-08-17T04:21:10.395Z,19.44
2022-08-17T04:22:11.903Z,19.41
2022-08-17T04:23:33.421Z,19.39
2022-08-17T04:24:35.655Z,19.37
2022-08-17T04:25:39.948Z,19.35
2022-08-17T04:26:53.607Z,19.32
2022-08-17T04:27:56.852Z,19.34
2022-08-17T04:28:58.780Z,19.34
2022-08-17T04:30:01.080Z,19.33
2022-08-17T04:31:02.594Z,19.32
2022-08-17T04:32:04.594Z,19.30
2022-08-17T04:33:09.795Z,19.29
2022-08-17T04:34:11.755Z,19.25
2022-08-17T04:35:18.297Z,19.24
2022-08-17T04:36:19.993Z,19.23
2022-08-17T04:37:21.536Z,19.22
2022-08-17T04:38:26.127Z,19.21
2022-08-17T04:39:27.711Z,19.18
2022-08-17T04:40:29.343Z,19.20
2022-08-17T04:41:30.871Z,19.19
2022-08-17T04:42:32.509Z,19.19
2022-08-17T04:43:35.464Z,19.18
2022-08-17T04:44:38.201Z,19.20
2022-08-17T04:45:55.450Z,19.25
2022-08-17T04:46:57.970Z,19.23
2022-08-17T04:48:00.990Z,19.26
2022-08-17T04:49:07.227Z,19.26
2022-08-17T04:50:09.271Z,19.26
2022-08-17T04:51:25.021Z,19.21
2022-08-17T04:52:29.823Z,19.25
2022-08-17T04:53:54.308Z,19.27
2022-08-17T04:54:56.530Z,19.32
2022-08-17T04:55:57.989Z,19.32
2022-08-17T04:56:59.501Z,19.38
2022-08-17T04:58:01.027Z,19.43
2022-08-17T04:59:06.314Z,19.51
2022-08-17T05:00:08.616Z,19.59
2022-08-17T05:01:10.242Z,19.67
2022-08-17T05:02:14.104Z,19.71
2022-08-17T05:03:15.710Z,19.72
2022-08-17T05:04:33.938Z,19.69
2022-08-17T05:05:38.942Z,19.74
2022-08-17T05:06:40.553Z,19.81
2022-08-17T05:07:42.150Z,19.85
2022-08-17T05:08:43.786Z,19.89
2022-08-17T05:09:45.269Z,19.93
2022-08-17T05:10:47.400Z,19.94
2022-08-17T05:11:48.956Z,19.97
2022-08-17T05:13:15.088Z,20.04
2022-08-17T05:14:16.662Z,20.26
2022-08-17T05:15:18.154Z,20.33
2022-08-17T05:16:22.532Z,20.39
2022-08-17T05:17:24.079Z,20.60
2022-08-17T05:18:26.602Z,20.74
2022-08-17T05:19:28.393Z,20.90
2022-08-17T05:20:30.897Z,21.09
2022-08-17T05:21:32.473Z,21.30
2022-08-17T05:22:33.987Z,21.42
2022-08-17T05:23:42.874Z,21.58
2022-08-17T05:24:53.922Z,21.80
2022-08-17T05:25:57.216Z,22.02
2022-08-17T05:27:06.222Z,22.10
2022-08-17T05:28:09.391Z,22.20
2022-08-17T05:29:11.104Z,22.23
2022-08-17T05:30:14.124Z,22.44
2022-08-17T05:31:15.895Z,22.60
2022-08-17T05:32:39.692Z,22.76
2022-08-17T05:33:44.524Z,22.97
2022-08-17T05:34:48.298Z,23.10
2022-08-17T05:35:52.012Z,23.14
2022-08-17T05:36:53.583Z,23.19
2022-08-17T05:37:56.756Z,23.16
2022-08-17T05:38:59.325Z,23.13
2022-08-17T05:40:01.054Z,23.12
2022-08-17T05:41:05.522Z,23.06
2022-08-17T05:42:07.051Z,23.08
2022-08-17T05:43:11.420Z,23.04
2022-08-17T05:44:12.978Z,23.05
2022-08-17T05:45:17.194Z,23.07
2022-08-17T05:46:43.395Z,23.16
2022-08-17T05:47:46.319Z,23.20
2022-08-17T05:48:54.079Z,23.20
2022-08-17T05:49:56.441Z,23.27
2022-08-17T05:51:24.761Z,23.28
2022-08-17T05:52:29.265Z,23.37
2022-08-17T05:54:06.986Z,23.17
2022-08-17T05:55:14.097Z,22.99
2022-08-17T05:56:49.447Z,22.96
2022-08-17T05:57:57.476Z,22.90
2022-08-17T05:59:16.850Z,22.81
2022-08-17T06:00:41.876Z,22.81
2022-08-17T06:01:46.763Z,22.95
2022-08-17T06:02:59.516Z,22.92
2022-08-17T06:04:16.571Z,22.96
2022-08-17T06:05:45.316Z,22.99
2022-08-17T06:06:59.233Z,23.01
2022-08-17T06:08:16.663Z,23.16
2022-08-17T06:09:32.996Z,23.30
2022-08-17T06:10:51.097Z,23.51
2022-08-17T06:12:23.258Z,23.66
2022-08-17T06:13:54.830Z,23.73
2022-08-17T06:15:08.443Z,23.72
2022-08-17T06:16:28.199Z,23.79
2022-08-17T06:17:36.894Z,23.86
2022-08-17T06:18:50.137Z,23.87
2022-08-17T06:20:08.353Z,23.91
2022-08-17T06:21:16.656Z,23.94
2022-08-17T06:22:22.290Z,23.99
2022-08-17T06:23:35.968Z,24.04
2022-08-17T06:25:10.172Z,24.17
2022-08-17T06:26:22.206Z,24.40
2022-08-17T06:27:43.034Z,24.77
2022-08-17T06:29:02.390Z,25.25
2022-08-17T06:30:57.508Z,25.85
2022-08-17T06:31:55.082Z,26.81
2022-08-17T06:33:03.087Z,27.26
2022-08-17T06:34:09.533Z,27.81
2022-08-17T06:35:14.657Z,28.48
2022-08-17T06:36:43.765Z,29.11
2022-08-17T06:38:03.606Z,29.77
2022-08-17T06:39:23.897Z,30.37
2022-08-17T06:40:46.395Z,30.84
2022-08-17T06:43:02.465Z,31.09
2022-08-17T06:44:43.133Z,31.89
2022-08-17T06:45:46.709Z,32.36
2022-08-17T06:46:55.079Z,32.42
2022-08-17T06:48:09.481Z,31.90
2022-08-17T06:49:28.026Z,31.40
2022-08-17T06:50:44.145Z,30.71
2022-08-17T06:52:06.589Z,29.98
2022-08-17T06:53:20.930Z,29.50
2022-08-17T06:54:32.905Z,29.64
2022-08-17T06:55:38.308Z,30.08
2022-08-17T06:56:54.473Z,30.50
2022-08-17T06:57:59.690Z,30.89
2022-08-17T06:59:01.907Z,31.16
2022-08-17T07:00:11.644Z,31.33
2022-08-17T07:01:25.468Z,31.55
2022-08-17T07:02:52.177Z,31.79
2022-08-17T07:04:13.409Z,32.36
2022-08-17T07:05:18.205Z,33.01
2022-08-17T07:06:23.555Z,33.53
2022-08-17T07:07:25.058Z,33.83
2022-08-17T07:08:35.092Z,33.94
2022-08-17T07:09:38.022Z,34.26
2022-08-17T07:10:44.824Z,34.54
2022-08-17T07:11:54.341Z,34.81
2022-08-17T07:13:02.714Z,35.45
2022-08-17T07:14:04.280Z,35.70
2022-08-17T07:15:17.386Z,35.41
2022-08-17T07:16:25.859Z,35.27
2022-08-17T07:17:46.573Z,35.04
2022-08-17T07:18:51.704Z,34.75
2022-08-17T07:20:01.454Z,34.59
2022-08-17T07:21:26.641Z,34.34
2022-08-17T07:22:57.617Z,34.20
2022-08-17T07:24:28.099Z,33.64
2022-08-17T07:25:31.965Z,33.22
2022-08-17T07:26:33.494Z,32.89
2022-08-17T07:28:02.499Z,32.27
2022-08-17T07:29:09.977Z,31.91
2022-08-17T07:30:28.356Z,31.61
2022-08-17T07:31:30.943Z,31.31
2022-08-17T07:32:36.350Z,30.94
2022-08-17T07:33:37.897Z,30.82
2022-08-17T07:35:04.052Z,30.79
2022-08-17T07:36:27.734Z,30.51
2022-08-17T07:37:31.268Z,30.29
2022-08-17T07:38:34.762Z,30.24
2022-08-17T07:39:36.357Z,30.22
2022-08-17T07:40:58.032Z,30.18
2022-08-17T07:42:04.356Z,30.31
2022-08-17T07:43:15.566Z,30.35
2022-08-17T07:44:23.932Z,30.42
2022-08-17T07:45:25.495Z,30.47
2022-08-17T07:46:33.349Z,30.31
2022-08-17T07:47:35.085Z,30.11
2022-08-17T07:48:39.165Z,30.26
2022-08-17T07:49:43.750Z,30.32
2022-08-17T07:50:49.374Z,30.46
2022-08-17T07:51:52.217Z,30.15
2022-08-17T07:52:53.845Z,30.14
2022-08-17T07:54:14.053Z,30.16
2022-08-17T07:55:28.217Z,30.24
2022-08-17T07:56:35.797Z,30.19
2022-08-17T07:57:37.311Z,30.13
2022-08-17T07:58:38.877Z,30.03
2022-08-17T08:00:01.339Z,30.25
2022-08-17T08:01:10.157Z,30.10
2022-08-17T08:02:14.481Z,30.17
2022-08-17T08:03:26.224Z,30.32
2022-08-17T08:05:57.474Z,30.49
2022-08-17T08:07:01.253Z,30.42
2022-08-17T08:08:17.920Z,30.09
2022-08-17T08:10:07.340Z,30.17
2022-08-17T08:11:11.347Z,30.21
2022-08-17T08:12:41.788Z,30.27
2022-08-17T08:13:44.571Z,30.23
2022-08-17T08:14:54.015Z,30.18
2022-08-17T08:16:23.857Z,30.04
2022-08-17T08:17:35.152Z,29.93
2022-08-17T08:18:54.318Z,29.86
2022-08-17T08:19:59.411Z,29.58
2022-08-17T08:21:00.967Z,29.58
2022-08-17T08:22:08.597Z,29.33
2022-08-17T08:23:22.530Z,28.98
2022-08-17T08:24:55.568Z,28.90
2022-08-17T08:26:25.623Z,28.91
2022-08-17T08:28:07.228Z,28.99
2022-08-17T08:29:23.790Z,29.06
2022-08-17T08:30:25.279Z,29.07
2022-08-17T08:31:26.694Z,28.87
2022-08-17T08:32:50.586Z,28.69
2022-08-17T08:34:09.272Z,28.80
2022-08-17T08:35:56.499Z,29.02
2022-08-17T08:37:30.499Z,28.96
2022-08-17T08:38:55.639Z,29.10
2022-08-17T08:40:25.213Z,29.05
2022-08-17T08:41:44.406Z,29.20
2022-08-17T08:43:07.741Z,28.96
2022-08-17T08:45:01.317Z,28.89
2022-08-17T08:46:18.393Z,28.62
2022-08-17T08:47:51.265Z,28.75
2022-08-17T08:49:38.969Z,28.65
2022-08-17T08:51:03.004Z,28.75
2022-08-17T08:52:19.370Z,28.67
2022-08-17T08:53:39.284Z,28.58
2022-08-17T08:55:01.299Z,28.63
2022-08-17T08:56:30.886Z,28.61
2022-08-17T08:57:38.335Z,28.48
2022-08-17T08:58:56.016Z,28.35
2022-08-17T09:00:12.893Z,28.42
2022-08-17T09:01:41.824Z,28.38
2022-08-17T09:02:58.410Z,28.31
2022-08-17T09:04:24.776Z,28.35
2022-08-17T09:05:45.454Z,28.35
2022-08-17T09:07:01.800Z,28.35
2022-08-17T09:08:27.585Z,28.36
2022-08-17T09:09:47.693Z,28.43
2022-08-17T09:11:04.822Z,28.39
2022-08-17T09:12:18.468Z,28.27
2022-08-17T09:13:30.107Z,28.12
2022-08-17T09:14:51.244Z,28.10
2022-08-17T09:16:02.758Z,28.13
2022-08-17T09:17:18.579Z,28.11
2022-08-17T09:19:02.576Z,28.16
2022-08-17T09:20:14.444Z,28.08
2022-08-17T09:21:48.601Z,28.06
2022-08-17T09:23:02.353Z,28.13
2022-08-17T09:24:13.922Z,28.24
2022-08-17T09:25:28.141Z,28.21
2022-08-17T09:26:48.575Z,28.27
2022-08-17T09:28:07.623Z,28.28
2022-08-17T09:29:16.062Z,28.36
2022-08-17T09:30:18.357Z,28.22
2022-08-17T09:31:33.350Z,28.24
2022-08-17T09:32:44.692Z,28.33
2022-08-17T09:33:48.643Z,28.31
2022-08-17T09:34:57.001Z,28.28
2022-08-17T09:36:05.399Z,28.25
2022-08-17T09:37:15.880Z,28.23
2022-08-17T09:38:31.740Z,28.12
2022-08-17T09:40:00.217Z,28.05
2022-08-17T09:41:33.259Z,27.89
2022-08-17T09:42:47.429Z,27.89
2022-08-17T09:44:00.323Z,27.75
2022-08-17T09:45:21.685Z,27.66
2022-08-17T09:46:38.893Z,27.65
2022-08-17T09:47:46.417Z,27.52
2022-08-17T09:48:56.415Z,27.36
2022-08-17T09:50:13.391Z,27.31
2022-08-17T09:51:34.902Z,27.25
2022-08-17T09:52:36.560Z,27.23
2022-08-17T09:53:39.296Z,27.24
2022-08-17T09:54:41.535Z,27.18
2022-08-17T09:55:56.360Z,27.14
2022-08-17T09:57:31.451Z,27.06
2022-08-17T09:58:45.486Z,27.05
2022-08-17T10:00:05.271Z,27.07
2022-08-17T10:01:31.923Z,27.08
2022-08-17T10:02:39.313Z,27.10
2022-08-17T10:04:20.244Z,27.10
2022-08-17T10:05:35.730Z,27.04
2022-08-17T10:06:52.266Z,27.08
2022-08-17T10:08:08.950Z,27.08
2022-08-17T10:09:29.992Z,27.08
2022-08-17T10:10:52.351Z,27.11
2022-08-17T10:12:30.241Z,27.05
2022-08-17T10:13:34.649Z,27.00
2022-08-17T10:14:46.649Z,26.89
2022-08-17T10:16:16.655Z,26.78
2022-08-17T10:17:25.648Z,26.70
2022-08-17T10:18:34.694Z,26.65
2022-08-17T10:19:46.010Z,26.57
2022-08-17T10:21:06.030Z,26.48
2022-08-17T10:22:34.836Z,26.41
2022-08-17T10:23:40.142Z,26.35
2022-08-17T10:25:21.376Z,26.31
2022-08-17T10:26:24.204Z,26.21
2022-08-17T10:27:39.442Z,26.16
2022-08-17T10:28:55.944Z,26.11
2022-08-17T10:30:02.090Z,26.12
2022-08-17T10:32:35.654Z,26.10
2022-08-17T10:33:56.480Z,26.11
2022-08-17T10:35:22.026Z,26.15
2022-08-17T10:36:37.832Z,26.16
2022-08-17T10:37:41.978Z,26.20
2022-08-17T10:38:49.520Z,26.19
2022-08-17T10:40:28.069Z,26.18
2022-08-17T10:41:40.407Z,26.22
2022-08-17T10:43:00.878Z,26.22
2022-08-17T10:44:37.066Z,26.19
2022-08-17T10:45:48.325Z,26.17
2022-08-17T10:47:12.660Z,26.31
2022-08-17T10:48:14.268Z,26.36
2022-08-17T10:49:18.855Z,26.35
2022-08-17T10:50:42.077Z,26.40
2022-08-17T10:51:46.220Z,26.43
2022-08-17T10:52:48.578Z,26.50
2022-08-17T10:53:50.948Z,26.44
2022-08-17T10:54:58.233Z,26.37
2022-08-17T10:56:12.702Z,26.32
2022-08-17T10:57:26.496Z,26.29
2022-08-17T10:58:45.151Z,26.36
2022-08-17T10:59:49.483Z,26.26
2022-08-17T11:00:54.112Z,26.21
2022-08-17T11:02:02.947Z,26.11
2022-08-17T11:03:18.711Z,26.07
2022-08-17T11:04:51.041Z,25.98
2022-08-17T11:05:59.908Z,25.99
2022-08-17T11:07:35.435Z,25.88
2022-08-17T11:08:55.556Z,25.49
2022-08-17T11:10:25.501Z,25.24
2022-08-17T11:11:48.755Z,24.83
2022-08-17T11:13:03.242Z,24.65
2022-08-17T11:14:13.100Z,24.56
2022-08-17T11:15:23.647Z,24.50
2022-08-17T11:16:43.926Z,24.47
2022-08-17T11:18:22.580Z,24.48
2022-08-17T11:19:42.285Z,24.39
2022-08-17T11:21:01.236Z,24.33
2022-08-17T11:22:21.396Z,24.25
2022-08-17T11:23:28.846Z,24.23
2022-08-17T11:24:40.402Z,24.18
2022-08-17T11:25:55.739Z,24.22
2022-08-17T11:27:22.258Z,24.14
2022-08-17T11:28:27.615Z,24.06
2022-08-17T11:29:56.817Z,23.98
2022-08-17T11:31:44.051Z,23.89
2022-08-17T11:32:54.658Z,23.84
2022-08-17T11:34:18.773Z,23.81
2022-08-17T11:35:20.290Z,23.81
2022-08-17T11:36:46.300Z,23.82
2022-08-17T11:38:31.007Z,23.83
2022-08-17T11:40:02.094Z,23.79
2022-08-17T11:41:36.190Z,23.83
2022-08-17T11:42:49.798Z,23.72
2022-08-17T11:44:04.196Z,23.68
2022-08-17T11:45:32.285Z,23.58
2022-08-17T11:46:50.990Z,23.53
2022-08-17T11:48:27.656Z,23.57
2022-08-17T11:49:45.085Z,23.45
2022-08-17T11:50:54.088Z,23.38
2022-08-17T11:52:09.737Z,23.25
2022-08-17T11:53:37.508Z,23.23
2022-08-17T11:54:46.796Z,23.25
2022-08-17T11:55:57.654Z,23.25
2022-08-17T11:57:19.895Z,23.25
2022-08-17T11:58:30.592Z,23.25
2022-08-17T11:59:32.021Z,23.15
2022-08-17T12:00:46.395Z,23.14
2022-08-17T12:01:55.384Z,23.14
2022-08-17T12:03:15.472Z,23.11
2022-08-17T12:04:24.958Z,23.04
2022-08-17T12:05:31.150Z,23.03
2022-08-17T12:06:35.410Z,23.10
2022-08-17T12:07:42.208Z,23.15
2022-08-17T12:08:55.193Z,23.19
2022-08-17T12:10:00.050Z,23.18
2022-08-17T12:11:09.772Z,23.21
2022-08-17T12:12:16.833Z,23.24
2022-08-17T12:13:19.199Z,23.33
2022-08-17T12:14:40.104Z,23.50
2022-08-17T12:15:50.378Z,23.57
2022-08-17T12:16:58.684Z,23.70
2022-08-17T12:18:00.316Z,23.73
2022-08-17T12:19:03.696Z,23.87
2022-08-17T12:20:18.102Z,23.92
2022-08-17T12:21:52.130Z,23.99
2022-08-17T12:23:09.310Z,24.13
2022-08-17T12:24:35.266Z,24.19
2022-08-17T12:25:47.580Z,24.24
2022-08-17T12:26:58.112Z,24.26
2022-08-17T12:28:04.911Z,24.33
2022-08-17T12:29:18.492Z,24.35
2022-08-17T12:30:37.401Z,24.43
2022-08-17T12:31:58.591Z,24.48
2022-08-17T12:33:00.693Z,24.59
2022-08-17T12:34:04.536Z,24.62
2022-08-17T12:35:23.811Z,24.63
2022-08-17T12:36:27.377Z,24.64
2022-08-17T12:37:32.117Z,24.59
2022-08-17T12:38:36.743Z,24.61
2022-08-17T12:39:40.377Z,24.67
2022-08-17T12:40:57.858Z,24.71
2022-08-17T12:42:02.623Z,24.83
2022-08-17T12:43:20.050Z,24.94
2022-08-17T12:44:36.256Z,25.08
2022-08-17T12:45:57.027Z,25.11
2022-08-17T12:47:11.860Z,25.16
2022-08-17T12:48:22.666Z,25.15
2022-08-17T12:49:24.160Z,25.19
2022-08-17T12:50:28.619Z,25.18
2022-08-17T12:51:31.504Z,25.22
2022-08-17T12:52:37.167Z,25.26
2022-08-17T12:53:40.138Z,25.37
2022-08-17T12:55:01.618Z,25.36
2022-08-17T12:56:10.978Z,25.39
2022-08-17T12:57:19.385Z,25.44
2022-08-17T12:58:25.017Z,25.42
2022-08-17T12:59:30.269Z,25.39
2022-08-17T13:00:37.855Z,25.42
2022-08-17T13:01:42.623Z,25.41
2022-08-17T13:02:48.938Z,25.47
2022-08-17T13:03:55.042Z,25.51
2022-08-17T13:05:00.234Z,25.49
2022-08-17T13:06:06.018Z,25.46
2022-08-17T13:07:07.606Z,25.48
2022-08-17T13:08:30.955Z,25.43
2022-08-17T13:09:35.590Z,25.40
2022-08-17T13:10:43.702Z,25.33
2022-08-17T13:11:54.900Z,25.29
2022-08-17T13:12:56.910Z,25.25
2022-08-17T13:14:09.430Z,25.14
2022-08-17T13:15:24.923Z,25.19
2022-08-17T13:16:30.664Z,25.21
2022-08-17T13:17:35.509Z,25.31
2022-08-17T13:18:47.048Z,25.33
2022-08-17T13:19:50.814Z,25.32
2022-08-17T13:20:53.463Z,25.23
2022-08-17T13:21:59.100Z,25.27
2022-08-17T13:23:11.425Z,25.26
2022-08-17T13:24:19.435Z,25.33
2022-08-17T13:25:21.120Z,25.29
2022-08-17T13:26:40.067Z,25.34
2022-08-17T13:27:42.971Z,25.30
2022-08-17T13:28:49.113Z,25.40
2022-08-17T13:29:54.738Z,25.45
2022-08-17T13:31:27.248Z,25.48
2022-08-17T13:32:39.920Z,25.48
2022-08-17T13:33:45.911Z,25.57
2022-08-17T13:35:15.315Z,25.76
2022-08-17T13:36:27.993Z,26.03
2022-08-17T13:37:35.518Z,26.23
2022-08-17T13:38:44.939Z,26.44
2022-08-17T13:39:46.556Z,26.57
2022-08-17T13:40:52.753Z,26.57
2022-08-17T13:41:54.776Z,26.70
2022-08-17T13:42:57.423Z,26.74
2022-08-17T13:43:59.034Z,26.90
2022-08-17T13:45:01.491Z,27.01
2022-08-17T13:46:28.330Z,27.18
2022-08-17T13:47:29.927Z,27.24
2022-08-17T13:48:31.529Z,27.37
2022-08-17T13:49:48.367Z,27.59
2022-08-17T13:50:56.130Z,27.73
2022-08-17T13:51:58.088Z,27.74
2022-08-17T13:52:59.738Z,27.88
2022-08-17T13:54:03.903Z,28.09
2022-08-17T13:55:20.999Z,28.32
2022-08-17T13:56:39.161Z,28.56
2022-08-17T13:57:46.673Z,28.77
2022-08-17T13:59:36.405Z,29.06
2022-08-17T14:00:57.179Z,29.22
2022-08-17T14:02:00.372Z,29.26
2022-08-17T14:03:03.927Z,29.30
2022-08-17T14:04:27.722Z,29.32
2022-08-17T14:05:30.556Z,29.20
2022-08-17T14:06:55.354Z,29.16
2022-08-17T14:08:02.606Z,29.16
2022-08-17T14:09:08.838Z,29.20
2022-08-17T14:10:14.621Z,29.26
2022-08-17T14:11:17.651Z,29.32
2022-08-17T14:12:22.410Z,29.33
2022-08-17T14:13:24.044Z,29.38
2022-08-17T14:14:26.328Z,29.46
2022-08-17T14:15:53.908Z,29.44
2022-08-17T14:16:50.787Z,29.46
2022-08-17T14:17:52.720Z,29.44
2022-08-17T14:18:56.891Z,29.45
2022-08-17T14:19:59.460Z,29.57
2022-08-17T14:21:01.156Z,29.63
2022-08-17T14:22:03.945Z,29.80
2022-08-17T14:23:05.590Z,29.81
2022-08-17T14:24:10.849Z,29.66
2022-08-17T14:25:15.456Z,29.65
2022-08-17T14:26:17.472Z,29.58
2022-08-17T14:27:20.029Z,29.53
2022-08-17T14:28:21.525Z,29.58
2022-08-17T14:29:25.583Z,29.71
2022-08-17T14:30:29.062Z,29.83
2022-08-17T14:31:36.804Z,29.82
2022-08-17T14:32:40.398Z,29.86
2022-08-17T14:33:41.936Z,29.84
2022-08-17T14:34:43.424Z,29.75
2022-08-17T14:35:44.915Z,29.80
2022-08-17T14:36:48.590Z,29.83
2022-08-17T14:37:51.997Z,29.88
2022-08-17T14:38:53.714Z,29.87
2022-08-17T14:39:56.783Z,29.91
2022-08-17T14:40:58.309Z,29.99
2022-08-17T14:42:01.359Z,30.06
2022-08-17T14:43:03.386Z,30.09
2022-08-17T14:44:06.254Z,30.16
2022-08-17T14:45:32.395Z,30.24
2022-08-17T14:46:31.837Z,30.33
2022-08-17T14:47:35.044Z,30.39
2022-08-17T14:48:36.548Z,30.48
2022-08-17T14:49:38.067Z,30.47
2022-08-17T14:50:42.234Z,30.44
2022-08-17T14:51:44.562Z,30.55
2022-08-17T14:52:47.764Z,30.73
2022-08-17T14:53:50.268Z,30.75
2022-08-17T14:54:52.995Z,30.69
2022-08-17T14:55:54.507Z,30.68
2022-08-17T14:57:00.908Z,30.61
2022-08-17T14:58:17.523Z,30.63
2022-08-17T14:59:19.076Z,30.46
2022-08-17T15:00:20.813Z,30.32
2022-08-17T15:01:24.641Z,30.39
2022-08-17T15:02:29.977Z,30.41
2022-08-17T15:03:32.347Z,30.43